sensor_id;sensor_type;location;lat;lon;timestamp;P1;durP1;ratioP1;P2;durP2;ratioP2
78443;SDS011;67739;52.986;8.894;2023-02-28T00:02:15;12.55;;;4.05;;
78443;SDS011;67739;52.986;8.894;2023-02-28T00:04:42;10.25;;;4.93;;
78443;SDS011;67739;52.986;8.894;2023-02-28T00:09:33;13.60;;;4.32;;
78443;SDS011;67739;52.986;8.894;2023-02-28T00:14:24;10.95;;;3.53;;
78443;SDS011;67739;52.986;8.894;2023-02-28T00:19:14;10.97;;;4.33;;
78443;SDS011;67739;52.986;8.894;2023-02-28T00:24:06;8.80;;;3.45;;
78443;SDS011;67739;52.986;8.894;2023-02-28T00:26:31;9.50;;;4.25;;
78443;SDS011;67739;52.986;8.894;2023-02-28T00:31:22;6.43;;;2.83;;
78443;SDS011;67739;52.986;8.894;2023-02-28T00:36:12;8.23;;;2.90;;
78443;SDS011;67739;52.986;8.894;2023-02-28T00:41:04;9.93;;;3.78;;
78443;SDS011;67739;52.986;8.894;2023-02-28T00:45:56;7.35;;;3.45;;
78443;SDS011;67739;52.986;8.894;2023-02-28T00:50:48;8.17;;;3.07;;
78443;SDS011;67739;52.986;8.894;2023-02-28T00:53:14;7.78;;;3.58;;
78443;SDS011;67739;52.986;8.894;2023-02-28T00:58:05;12.30;;;3.23;;
78443;SDS011;67739;52.986;8.894;2023-02-28T01:00:30;7.10;;;3.42;;
78443;SDS011;67739;52.986;8.894;2023-02-28T01:05:20;6.22;;;2.55;;
78443;SDS011;67739;52.986;8.894;2023-02-28T01:07:46;7.93;;;3.47;;
78443;SDS011;67739;52.986;8.894;2023-02-28T01:10:11;10.80;;;4.20;;
78443;SDS011;67739;52.986;8.894;2023-02-28T01:12:37;7.40;;;3.45;;
78443;SDS011;67739;52.986;8.894;2023-02-28T01:15:02;9.32;;;3.72;;
78443;SDS011;67739;52.986;8.894;2023-02-28T01:17:28;8.20;;;3.47;;
78443;SDS011;67739;52.986;8.894;2023-02-28T01:19:54;6.90;;;2.80;;
78443;SDS011;67739;52.986;8.894;2023-02-28T01:22:20;9.05;;;4.07;;
78443;SDS011;67739;52.986;8.894;2023-02-28T01:24:45;7.22;;;3.53;;
78443;SDS011;67739;52.986;8.894;2023-02-28T01:29:36;18.00;;;3.95;;
78443;SDS011;67739;52.986;8.894;2023-02-28T01:32:01;12.25;;;4.18;;
78443;SDS011;67739;52.986;8.894;2023-02-28T01:36:52;9.40;;;4.68;;
78443;SDS011;67739;52.986;8.894;2023-02-28T01:39:17;10.00;;;4.38;;
78443;SDS011;67739;52.986;8.894;2023-02-28T01:47:11;8.80;;;4.32;;
78443;SDS011;67739;52.986;8.894;2023-02-28T01:52:02;7.60;;;3.67;;
78443;SDS011;67739;52.986;8.894;2023-02-28T01:54:31;10.90;;;5.07;;
78443;SDS011;67739;52.986;8.894;2023-02-28T02:02:14;10.25;;;4.13;;
78443;SDS011;67739;52.986;8.894;2023-02-28T02:04:48;7.93;;;4.25;;
78443;SDS011;67739;52.986;8.894;2023-02-28T02:09:41;8.57;;;4.45;;
78443;SDS011;67739;52.986;8.894;2023-02-28T02:12:10;11.90;;;5.90;;
78443;SDS011;67739;52.986;8.894;2023-02-28T02:15:12;11.38;;;6.22;;
78443;SDS011;67739;52.986;8.894;2023-02-28T02:17:51;9.65;;;4.93;;
78443;SDS011;67739;52.986;8.894;2023-02-28T02:28:24;10.23;;;5.22;;
78443;SDS011;67739;52.986;8.894;2023-02-28T02:42:20;10.43;;;5.90;;
78443;SDS011;67739;52.986;8.894;2023-02-28T02:45:01;9.38;;;5.20;;
78443;SDS011;67739;52.986;8.894;2023-02-28T02:47:32;11.95;;;4.78;;
78443;SDS011;67739;52.986;8.894;2023-02-28T02:50:01;8.15;;;4.70;;
78443;SDS011;67739;52.986;8.894;2023-02-28T02:52:32;9.50;;;4.93;;
78443;SDS011;67739;52.986;8.894;2023-02-28T02:55:02;7.65;;;4.15;;
78443;SDS011;67739;52.986;8.894;2023-02-28T02:57:32;10.32;;;5.25;;
78443;SDS011;67739;52.986;8.894;2023-02-28T03:00:02;14.73;;;5.18;;
78443;SDS011;67739;52.986;8.894;2023-02-28T03:02:33;10.25;;;5.72;;
78443;SDS011;67739;52.986;8.894;2023-02-28T03:05:04;12.77;;;6.53;;
78443;SDS011;67739;52.986;8.894;2023-02-28T03:07:37;11.85;;;5.85;;
78443;SDS011;67739;52.986;8.894;2023-02-28T03:10:03;9.10;;;5.97;;
78443;SDS011;67739;52.986;8.894;2023-02-28T03:12:50;10.93;;;5.90;;
78443;SDS011;67739;52.986;8.894;2023-02-28T03:27:17;8.63;;;4.70;;
78443;SDS011;67739;52.986;8.894;2023-02-28T03:29:47;17.42;;;6.68;;
78443;SDS011;67739;52.986;8.894;2023-02-28T03:32:38;14.27;;;6.63;;
78443;SDS011;67739;52.986;8.894;2023-02-28T03:35:30;10.55;;;4.85;;
78443;SDS011;67739;52.986;8.894;2023-02-28T03:38:07;11.10;;;5.10;;
78443;SDS011;67739;52.986;8.894;2023-02-28T03:40:39;10.43;;;5.15;;
78443;SDS011;67739;52.986;8.894;2023-02-28T03:43:12;9.32;;;5.18;;
78443;SDS011;67739;52.986;8.894;2023-02-28T03:45:45;13.32;;;6.20;;
78443;SDS011;67739;52.986;8.894;2023-02-28T03:48:15;12.38;;;5.35;;
78443;SDS011;67739;52.986;8.894;2023-02-28T03:50:47;9.25;;;5.18;;
78443;SDS011;67739;52.986;8.894;2023-02-28T03:53:21;10.52;;;5.30;;
78443;SDS011;67739;52.986;8.894;2023-02-28T03:56:05;8.40;;;5.13;;
78443;SDS011;67739;52.986;8.894;2023-02-28T04:01:13;10.80;;;5.53;;
78443;SDS011;67739;52.986;8.894;2023-02-28T04:06:13;9.23;;;4.88;;
78443;SDS011;67739;52.986;8.894;2023-02-28T04:08:42;11.20;;;5.38;;
78443;SDS011;67739;52.986;8.894;2023-02-28T04:11:16;9.70;;;5.07;;
78443;SDS011;67739;52.986;8.894;2023-02-28T04:13:43;10.75;;;5.68;;
78443;SDS011;67739;52.986;8.894;2023-02-28T04:16:09;11.00;;;6.13;;
78443;SDS011;67739;52.986;8.894;2023-02-28T04:18:37;13.57;;;5.95;;
78443;SDS011;67739;52.986;8.894;2023-02-28T04:21:04;9.57;;;6.00;;
78443;SDS011;67739;52.986;8.894;2023-02-28T04:23:30;9.93;;;4.43;;
78443;SDS011;67739;52.986;8.894;2023-02-28T04:25:55;10.15;;;5.68;;
78443;SDS011;67739;52.986;8.894;2023-02-28T04:28:21;11.45;;;4.97;;
78443;SDS011;67739;52.986;8.894;2023-02-28T04:30:46;10.55;;;5.90;;
78443;SDS011;67739;52.986;8.894;2023-02-28T04:33:11;11.02;;;6.03;;
78443;SDS011;67739;52.986;8.894;2023-02-28T04:35:37;12.18;;;6.25;;
78443;SDS011;67739;52.986;8.894;2023-02-28T04:38:02;11.75;;;6.28;;
78443;SDS011;67739;52.986;8.894;2023-02-28T04:40:28;11.05;;;4.68;;
78443;SDS011;67739;52.986;8.894;2023-02-28T04:42:53;9.80;;;5.75;;
78443;SDS011;67739;52.986;8.894;2023-02-28T04:45:18;10.50;;;4.82;;
78443;SDS011;67739;52.986;8.894;2023-02-28T04:47:44;12.00;;;6.10;;
78443;SDS011;67739;52.986;8.894;2023-02-28T04:50:09;9.68;;;5.00;;
78443;SDS011;67739;52.986;8.894;2023-02-28T04:52:35;12.10;;;5.35;;
78443;SDS011;67739;52.986;8.894;2023-02-28T04:55:00;7.38;;;4.32;;
78443;SDS011;67739;52.986;8.894;2023-02-28T04:57:26;9.23;;;5.30;;
78443;SDS011;67739;52.986;8.894;2023-02-28T04:59:51;9.10;;;5.03;;
78443;SDS011;67739;52.986;8.894;2023-02-28T05:02:17;9.55;;;4.35;;
78443;SDS011;67739;52.986;8.894;2023-02-28T05:04:42;9.70;;;4.97;;
78443;SDS011;67739;52.986;8.894;2023-02-28T05:07:07;8.65;;;5.25;;
78443;SDS011;67739;52.986;8.894;2023-02-28T05:09:33;9.77;;;4.50;;
78443;SDS011;67739;52.986;8.894;2023-02-28T05:11:58;9.82;;;6.13;;
78443;SDS011;67739;52.986;8.894;2023-02-28T05:14:23;8.85;;;4.45;;
78443;SDS011;67739;52.986;8.894;2023-02-28T05:16:49;9.50;;;4.00;;
78443;SDS011;67739;52.986;8.894;2023-02-28T05:19:14;6.60;;;4.07;;
78443;SDS011;67739;52.986;8.894;2023-02-28T05:21:41;10.85;;;5.03;;
78443;SDS011;67739;52.986;8.894;2023-02-28T05:24:12;10.35;;;4.30;;
78443;SDS011;67739;52.986;8.894;2023-02-28T05:26:39;8.35;;;3.65;;
78443;SDS011;67739;52.986;8.894;2023-02-28T05:29:06;9.73;;;4.55;;
78443;SDS011;67739;52.986;8.894;2023-02-28T05:31:32;8.38;;;4.88;;
78443;SDS011;67739;52.986;8.894;2023-02-28T05:33:57;9.98;;;4.50;;
78443;SDS011;67739;52.986;8.894;2023-02-28T05:36:23;12.65;;;4.40;;
78443;SDS011;67739;52.986;8.894;2023-02-28T05:38:49;11.18;;;4.65;;
78443;SDS011;67739;52.986;8.894;2023-02-28T05:41:15;8.80;;;3.70;;
78443;SDS011;67739;52.986;8.894;2023-02-28T05:43:42;12.55;;;4.43;;
78443;SDS011;67739;52.986;8.894;2023-02-28T05:46:09;11.27;;;4.72;;
78443;SDS011;67739;52.986;8.894;2023-02-28T05:48:37;8.90;;;4.65;;
78443;SDS011;67739;52.986;8.894;2023-02-28T05:51:03;11.20;;;5.32;;
78443;SDS011;67739;52.986;8.894;2023-02-28T05:53:43;11.13;;;4.28;;
78443;SDS011;67739;52.986;8.894;2023-02-28T05:56:08;11.07;;;6.43;;
78443;SDS011;67739;52.986;8.894;2023-02-28T05:58:34;11.40;;;4.68;;
78443;SDS011;67739;52.986;8.894;2023-02-28T06:01:00;9.52;;;4.80;;
78443;SDS011;67739;52.986;8.894;2023-02-28T06:03:43;10.05;;;5.30;;
78443;SDS011;67739;52.986;8.894;2023-02-28T06:06:08;12.38;;;4.82;;
78443;SDS011;67739;52.986;8.894;2023-02-28T06:08:33;9.13;;;5.65;;
78443;SDS011;67739;52.986;8.894;2023-02-28T06:11:02;8.35;;;4.15;;
78443;SDS011;67739;52.986;8.894;2023-02-28T06:13:28;10.27;;;4.85;;
78443;SDS011;67739;52.986;8.894;2023-02-28T06:15:53;8.48;;;3.80;;
78443;SDS011;67739;52.986;8.894;2023-02-28T06:18:18;10.55;;;4.90;;
78443;SDS011;67739;52.986;8.894;2023-02-28T06:20:44;10.75;;;4.57;;
78443;SDS011;67739;52.986;8.894;2023-02-28T06:23:09;12.05;;;4.78;;
78443;SDS011;67739;52.986;8.894;2023-02-28T06:25:34;12.98;;;5.85;;
78443;SDS011;67739;52.986;8.894;2023-02-28T06:28:00;15.60;;;4.78;;
78443;SDS011;67739;52.986;8.894;2023-02-28T06:30:25;11.80;;;4.57;;
78443;SDS011;67739;52.986;8.894;2023-02-28T06:32:53;8.73;;;5.20;;
78443;SDS011;67739;52.986;8.894;2023-02-28T06:37:44;9.80;;;3.75;;
78443;SDS011;67739;52.986;8.894;2023-02-28T06:40:10;9.38;;;4.38;;
78443;SDS011;67739;52.986;8.894;2023-02-28T06:42:36;8.43;;;4.53;;
78443;SDS011;67739;52.986;8.894;2023-02-28T06:45:01;7.70;;;4.53;;
78443;SDS011;67739;52.986;8.894;2023-02-28T06:47:33;7.45;;;4.63;;
78443;SDS011;67739;52.986;8.894;2023-02-28T06:49:59;12.68;;;7.07;;
78443;SDS011;67739;52.986;8.894;2023-02-28T06:52:26;9.82;;;4.75;;
78443;SDS011;67739;52.986;8.894;2023-02-28T06:54:51;9.07;;;4.80;;
78443;SDS011;67739;52.986;8.894;2023-02-28T06:57:25;11.85;;;5.03;;
78443;SDS011;67739;52.986;8.894;2023-02-28T06:59:55;7.28;;;3.97;;
78443;SDS011;67739;52.986;8.894;2023-02-28T07:02:22;9.10;;;5.05;;
78443;SDS011;67739;52.986;8.894;2023-02-28T07:04:47;8.15;;;4.25;;
78443;SDS011;67739;52.986;8.894;2023-02-28T07:07:12;9.68;;;3.72;;
78443;SDS011;67739;52.986;8.894;2023-02-28T07:09:38;10.50;;;4.28;;
78443;SDS011;67739;52.986;8.894;2023-02-28T07:12:03;9.45;;;4.60;;
78443;SDS011;67739;52.986;8.894;2023-02-28T07:14:29;9.63;;;5.47;;
78443;SDS011;67739;52.986;8.894;2023-02-28T07:16:54;10.98;;;5.47;;
78443;SDS011;67739;52.986;8.894;2023-02-28T07:19:19;9.90;;;5.43;;
78443;SDS011;67739;52.986;8.894;2023-02-28T07:21:45;10.30;;;5.10;;
78443;SDS011;67739;52.986;8.894;2023-02-28T07:24:10;8.25;;;4.55;;
78443;SDS011;67739;52.986;8.894;2023-02-28T07:26:35;12.30;;;5.82;;
78443;SDS011;67739;52.986;8.894;2023-02-28T07:29:01;9.05;;;4.57;;
78443;SDS011;67739;52.986;8.894;2023-02-28T07:31:27;10.52;;;5.60;;
78443;SDS011;67739;52.986;8.894;2023-02-28T07:33:52;10.43;;;5.03;;
78443;SDS011;67739;52.986;8.894;2023-02-28T07:36:18;10.32;;;5.72;;
78443;SDS011;67739;52.986;8.894;2023-02-28T07:38:45;12.60;;;5.55;;
78443;SDS011;67739;52.986;8.894;2023-02-28T07:41:13;12.60;;;6.43;;
78443;SDS011;67739;52.986;8.894;2023-02-28T07:46:06;8.60;;;4.85;;
78443;SDS011;67739;52.986;8.894;2023-02-28T07:48:33;7.53;;;4.88;;
78443;SDS011;67739;52.986;8.894;2023-02-28T07:50:59;6.63;;;4.05;;
78443;SDS011;67739;52.986;8.894;2023-02-28T07:53:25;8.30;;;4.20;;
78443;SDS011;67739;52.986;8.894;2023-02-28T07:55:54;9.43;;;4.97;;
78443;SDS011;67739;52.986;8.894;2023-02-28T07:58:23;8.75;;;4.72;;
78443;SDS011;67739;52.986;8.894;2023-02-28T08:00:50;8.82;;;4.32;;
78443;SDS011;67739;52.986;8.894;2023-02-28T08:03:16;9.15;;;4.72;;
78443;SDS011;67739;52.986;8.894;2023-02-28T08:05:45;9.27;;;4.50;;
78443;SDS011;67739;52.986;8.894;2023-02-28T08:08:11;9.30;;;4.32;;
78443;SDS011;67739;52.986;8.894;2023-02-28T08:10:36;9.38;;;5.97;;
78443;SDS011;67739;52.986;8.894;2023-02-28T08:13:02;10.35;;;6.28;;
78443;SDS011;67739;52.986;8.894;2023-02-28T08:15:27;9.18;;;5.45;;
78443;SDS011;67739;52.986;8.894;2023-02-28T08:17:52;12.85;;;6.60;;
78443;SDS011;67739;52.986;8.894;2023-02-28T08:20:18;11.60;;;6.43;;
78443;SDS011;67739;52.986;8.894;2023-02-28T08:22:44;10.38;;;6.35;;
78443;SDS011;67739;52.986;8.894;2023-02-28T08:25:09;11.45;;;5.57;;
78443;SDS011;67739;52.986;8.894;2023-02-28T08:27:35;8.32;;;4.82;;
78443;SDS011;67739;52.986;8.894;2023-02-28T08:30:00;9.93;;;6.20;;
78443;SDS011;67739;52.986;8.894;2023-02-28T08:32:26;10.90;;;6.18;;
78443;SDS011;67739;52.986;8.894;2023-02-28T08:34:51;9.52;;;6.00;;
78443;SDS011;67739;52.986;8.894;2023-02-28T08:37:16;9.52;;;4.90;;
78443;SDS011;67739;52.986;8.894;2023-02-28T08:39:42;7.85;;;3.92;;
78443;SDS011;67739;52.986;8.894;2023-02-28T08:42:07;10.20;;;5.65;;
78443;SDS011;67739;52.986;8.894;2023-02-28T08:44:32;9.50;;;4.65;;
78443;SDS011;67739;52.986;8.894;2023-02-28T08:46:58;10.38;;;5.53;;
78443;SDS011;67739;52.986;8.894;2023-02-28T08:49:23;8.85;;;4.60;;
78443;SDS011;67739;52.986;8.894;2023-02-28T08:51:48;7.50;;;4.30;;
78443;SDS011;67739;52.986;8.894;2023-02-28T08:56:44;11.60;;;4.13;;
78443;SDS011;67739;52.986;8.894;2023-02-28T08:59:10;12.98;;;5.20;;
78443;SDS011;67739;52.986;8.894;2023-02-28T09:04:01;6.93;;;2.88;;
78443;SDS011;67739;52.986;8.894;2023-02-28T09:06:27;7.50;;;3.15;;
78443;SDS011;67739;52.986;8.894;2023-02-28T09:08:55;8.43;;;2.95;;
78443;SDS011;67739;52.986;8.894;2023-02-28T09:11:26;6.50;;;3.33;;
78443;SDS011;67739;52.986;8.894;2023-02-28T09:13:52;6.90;;;4.43;;
78443;SDS011;67739;52.986;8.894;2023-02-28T09:18:43;10.00;;;2.75;;
78443;SDS011;67739;52.986;8.894;2023-02-28T09:21:10;5.47;;;2.05;;
78443;SDS011;67739;52.986;8.894;2023-02-28T09:23:39;6.18;;;2.50;;
78443;SDS011;67739;52.986;8.894;2023-02-28T09:26:13;6.22;;;1.95;;
78443;SDS011;67739;52.986;8.894;2023-02-28T09:28:39;4.13;;;1.50;;
78443;SDS011;67739;52.986;8.894;2023-02-28T09:31:05;4.57;;;1.88;;
78443;SDS011;67739;52.986;8.894;2023-02-28T09:33:30;4.32;;;1.20;;
78443;SDS011;67739;52.986;8.894;2023-02-28T09:36:00;3.10;;;0.90;;
78443;SDS011;67739;52.986;8.894;2023-02-28T09:38:28;4.72;;;0.57;;
78443;SDS011;67739;52.986;8.894;2023-02-28T09:40:55;2.42;;;0.77;;
78443;SDS011;67739;52.986;8.894;2023-02-28T09:43:24;2.17;;;0.60;;
78443;SDS011;67739;52.986;8.894;2023-02-28T09:46:00;2.70;;;0.57;;
78443;SDS011;67739;52.986;8.894;2023-02-28T09:48:34;2.67;;;0.50;;
78443;SDS011;67739;52.986;8.894;2023-02-28T09:51:03;3.45;;;0.63;;
78443;SDS011;67739;52.986;8.894;2023-02-28T09:53:49;4.20;;;0.80;;
78443;SDS011;67739;52.986;8.894;2023-02-28T09:56:17;3.45;;;0.70;;
78443;SDS011;67739;52.986;8.894;2023-02-28T09:58:53;3.92;;;0.93;;
78443;SDS011;67739;52.986;8.894;2023-02-28T10:01:24;4.70;;;0.75;;
78443;SDS011;67739;52.986;8.894;2023-02-28T10:03:56;2.88;;;0.47;;
78443;SDS011;67739;52.986;8.894;2023-02-28T10:06:26;8.00;;;1.95;;
78443;SDS011;67739;52.986;8.894;2023-02-28T10:08:56;15.63;;;4.72;;
78443;SDS011;67739;52.986;8.894;2023-02-28T10:11:27;2.38;;;0.63;;
78443;SDS011;67739;52.986;8.894;2023-02-28T10:19:55;2.28;;;0.38;;
78443;SDS011;67739;52.986;8.894;2023-02-28T10:22:34;2.25;;;0.40;;
78443;SDS011;67739;52.986;8.894;2023-02-28T10:25:23;1.73;;;0.40;;
78443;SDS011;67739;52.986;8.894;2023-02-28T10:27:59;1.83;;;0.40;;
78443;SDS011;67739;52.986;8.894;2023-02-28T10:30:36;2.22;;;0.45;;
78443;SDS011;67739;52.986;8.894;2023-02-28T10:33:35;4.28;;;0.75;;
78443;SDS011;67739;52.986;8.894;2023-02-28T10:36:00;5.00;;;0.93;;
78443;SDS011;67739;52.986;8.894;2023-02-28T10:38:34;3.75;;;0.80;;
78443;SDS011;67739;52.986;8.894;2023-02-28T10:41:08;2.17;;;0.65;;
78443;SDS011;67739;52.986;8.894;2023-02-28T10:43:35;2.88;;;0.47;;
78443;SDS011;67739;52.986;8.894;2023-02-28T10:46:04;4.20;;;1.05;;
78443;SDS011;67739;52.986;8.894;2023-02-28T10:48:40;3.15;;;0.60;;
78443;SDS011;67739;52.986;8.894;2023-02-28T10:51:15;0.88;;;0.20;;
78443;SDS011;67739;52.986;8.894;2023-02-28T11:01:12;2.72;;;0.50;;
78443;SDS011;67739;52.986;8.894;2023-02-28T11:03:40;1.08;;;0.20;;
78443;SDS011;67739;52.986;8.894;2023-02-28T11:06:07;3.33;;;0.40;;
78443;SDS011;67739;52.986;8.894;2023-02-28T11:08:52;1.85;;;0.50;;
78443;SDS011;67739;52.986;8.894;2023-02-28T11:11:18;2.90;;;0.43;;
78443;SDS011;67739;52.986;8.894;2023-02-28T11:13:46;3.10;;;0.90;;
78443;SDS011;67739;52.986;8.894;2023-02-28T11:16:15;3.58;;;0.73;;
78443;SDS011;67739;52.986;8.894;2023-02-28T11:21:16;1.65;;;0.20;;
78443;SDS011;67739;52.986;8.894;2023-02-28T11:23:46;1.67;;;0.30;;
78443;SDS011;67739;52.986;8.894;2023-02-28T11:26:14;1.75;;;0.28;;
78443;SDS011;67739;52.986;8.894;2023-02-28T11:28:40;2.35;;;0.55;;
78443;SDS011;67739;52.986;8.894;2023-02-28T11:36:17;3.25;;;0.22;;
78443;SDS011;67739;52.986;8.894;2023-02-28T11:38:45;3.25;;;0.50;;
78443;SDS011;67739;52.986;8.894;2023-02-28T11:51:49;1.67;;;0.45;;
78443;SDS011;67739;52.986;8.894;2023-02-28T11:57:40;4.07;;;0.88;;
78443;SDS011;67739;52.986;8.894;2023-02-28T12:06:25;4.07;;;0.50;;
78443;SDS011;67739;52.986;8.894;2023-02-28T12:16:56;2.65;;;0.60;;
78443;SDS011;67739;52.986;8.894;2023-02-28T12:22:35;3.08;;;0.60;;
78443;SDS011;67739;52.986;8.894;2023-02-28T12:27:37;4.60;;;0.60;;
78443;SDS011;67739;52.986;8.894;2023-02-28T12:30:27;3.55;;;0.55;;
78443;SDS011;67739;52.986;8.894;2023-02-28T12:32:55;2.25;;;0.57;;
78443;SDS011;67739;52.986;8.894;2023-02-28T12:35:49;3.92;;;1.05;;
78443;SDS011;67739;52.986;8.894;2023-02-28T12:38:16;2.03;;;0.50;;
78443;SDS011;67739;52.986;8.894;2023-02-28T12:41:03;3.55;;;0.47;;
78443;SDS011;67739;52.986;8.894;2023-02-28T12:46:03;1.05;;;0.45;;
78443;SDS011;67739;52.986;8.894;2023-02-28T12:48:54;2.20;;;0.55;;
78443;SDS011;67739;52.986;8.894;2023-02-28T12:51:22;2.60;;;0.50;;
78443;SDS011;67739;52.986;8.894;2023-02-28T12:59:23;2.55;;;0.70;;
78443;SDS011;67739;52.986;8.894;2023-02-28T13:02:09;2.88;;;0.50;;
78443;SDS011;67739;52.986;8.894;2023-02-28T13:04:54;3.20;;;0.52;;
78443;SDS011;67739;52.986;8.894;2023-02-28T13:10:16;3.17;;;0.50;;
78443;SDS011;67739;52.986;8.894;2023-02-28T13:12:53;3.45;;;1.27;;
78443;SDS011;67739;52.986;8.894;2023-02-28T13:15:24;2.08;;;0.43;;
78443;SDS011;67739;52.986;8.894;2023-02-28T13:17:53;1.33;;;0.40;;
78443;SDS011;67739;52.986;8.894;2023-02-28T13:20:25;1.70;;;0.50;;
78443;SDS011;67739;52.986;8.894;2023-02-28T13:22:54;2.20;;;0.35;;
78443;SDS011;67739;52.986;8.894;2023-02-28T13:27:47;3.55;;;0.52;;
78443;SDS011;67739;52.986;8.894;2023-02-28T13:44:05;4.53;;;0.75;;
78443;SDS011;67739;52.986;8.894;2023-02-28T13:57:06;6.00;;;0.80;;
78443;SDS011;67739;52.986;8.894;2023-02-28T14:05:33;3.63;;;0.60;;
78443;SDS011;67739;52.986;8.894;2023-02-28T14:10:42;3.10;;;0.55;;
78443;SDS011;67739;52.986;8.894;2023-02-28T14:13:36;1.83;;;0.40;;
78443;SDS011;67739;52.986;8.894;2023-02-28T14:16:17;2.22;;;0.40;;
78443;SDS011;67739;52.986;8.894;2023-02-28T14:18:51;1.92;;;0.47;;
78443;SDS011;67739;52.986;8.894;2023-02-28T14:33:04;2.35;;;0.43;;
78443;SDS011;67739;52.986;8.894;2023-02-28T14:38:15;3.45;;;0.70;;
78443;SDS011;67739;52.986;8.894;2023-02-28T14:40:46;1.23;;;0.32;;
78443;SDS011;67739;52.986;8.894;2023-02-28T14:43:47;1.80;;;0.40;;
78443;SDS011;67739;52.986;8.894;2023-02-28T14:46:13;4.25;;;0.50;;
78443;SDS011;67739;52.986;8.894;2023-02-28T14:48:39;1.85;;;0.47;;
78443;SDS011;67739;52.986;8.894;2023-02-28T14:51:04;2.90;;;0.50;;
78443;SDS011;67739;52.986;8.894;2023-02-28T14:53:30;2.72;;;0.45;;
78443;SDS011;67739;52.986;8.894;2023-02-28T14:56:01;2.53;;;0.60;;
78443;SDS011;67739;52.986;8.894;2023-02-28T14:58:31;3.15;;;0.50;;
78443;SDS011;67739;52.986;8.894;2023-02-28T15:00:58;4.93;;;0.90;;
78443;SDS011;67739;52.986;8.894;2023-02-28T15:03:35;1.08;;;0.30;;
78443;SDS011;67739;52.986;8.894;2023-02-28T15:06:04;3.70;;;0.82;;
78443;SDS011;67739;52.986;8.894;2023-02-28T15:08:31;3.35;;;0.70;;
78443;SDS011;67739;52.986;8.894;2023-02-28T15:11:01;3.88;;;0.52;;
78443;SDS011;67739;52.986;8.894;2023-02-28T15:16:01;2.42;;;0.55;;
78443;SDS011;67739;52.986;8.894;2023-02-28T15:20:58;4.85;;;0.65;;
78443;SDS011;67739;52.986;8.894;2023-02-28T15:23:28;3.00;;;0.43;;
78443;SDS011;67739;52.986;8.894;2023-02-28T15:25:55;3.47;;;0.80;;
78443;SDS011;67739;52.986;8.894;2023-02-28T15:28:21;1.70;;;0.43;;
78443;SDS011;67739;52.986;8.894;2023-02-28T15:30:55;3.08;;;0.60;;
78443;SDS011;67739;52.986;8.894;2023-02-28T15:33:24;2.60;;;0.57;;
78443;SDS011;67739;52.986;8.894;2023-02-28T15:36:09;3.00;;;0.75;;
78443;SDS011;67739;52.986;8.894;2023-02-28T15:38:38;2.75;;;0.80;;
78443;SDS011;67739;52.986;8.894;2023-02-28T15:41:03;2.17;;;0.60;;
78443;SDS011;67739;52.986;8.894;2023-02-28T15:43:34;2.63;;;0.90;;
78443;SDS011;67739;52.986;8.894;2023-02-28T15:46:02;3.30;;;0.60;;
78443;SDS011;67739;52.986;8.894;2023-02-28T15:48:32;3.95;;;0.68;;
78443;SDS011;67739;52.986;8.894;2023-02-28T15:53:32;3.10;;;0.73;;
78443;SDS011;67739;52.986;8.894;2023-02-28T15:56:02;1.92;;;0.50;;
78443;SDS011;67739;52.986;8.894;2023-02-28T15:58:30;3.17;;;0.43;;
78443;SDS011;67739;52.986;8.894;2023-02-28T16:01:38;3.28;;;1.15;;
78443;SDS011;67739;52.986;8.894;2023-02-28T16:03:49;3.00;;;0.80;;
78443;SDS011;67739;52.986;8.894;2023-02-28T16:09:11;3.00;;;0.70;;
78443;SDS011;67739;52.986;8.894;2023-02-28T16:11:39;4.10;;;0.82;;
78443;SDS011;67739;52.986;8.894;2023-02-28T16:14:11;6.07;;;0.93;;
78443;SDS011;67739;52.986;8.894;2023-02-28T16:16:41;2.90;;;0.70;;
78443;SDS011;67739;52.986;8.894;2023-02-28T16:19:09;2.30;;;0.70;;
78443;SDS011;67739;52.986;8.894;2023-02-28T16:21:34;4.75;;;0.60;;
78443;SDS011;67739;52.986;8.894;2023-02-28T16:23:59;3.95;;;0.70;;
78443;SDS011;67739;52.986;8.894;2023-02-28T16:26:25;3.53;;;0.65;;
78443;SDS011;67739;52.986;8.894;2023-02-28T16:28:52;2.47;;;0.57;;
78443;SDS011;67739;52.986;8.894;2023-02-28T16:31:18;2.28;;;0.60;;
78443;SDS011;67739;52.986;8.894;2023-02-28T16:33:44;2.47;;;0.55;;
78443;SDS011;67739;52.986;8.894;2023-02-28T16:36:12;3.65;;;1.08;;
78443;SDS011;67739;52.986;8.894;2023-02-28T16:38:45;2.63;;;0.65;;
78443;SDS011;67739;52.986;8.894;2023-02-28T16:41:24;4.68;;;1.50;;
78443;SDS011;67739;52.986;8.894;2023-02-28T16:43:52;2.88;;;0.68;;
78443;SDS011;67739;52.986;8.894;2023-02-28T16:46:23;2.13;;;0.52;;
78443;SDS011;67739;52.986;8.894;2023-02-28T16:48:50;3.30;;;0.60;;
78443;SDS011;67739;52.986;8.894;2023-02-28T16:51:16;2.30;;;0.50;;
78443;SDS011;67739;52.986;8.894;2023-02-28T16:53:43;2.78;;;0.65;;
78443;SDS011;67739;52.986;8.894;2023-02-28T16:56:14;1.88;;;0.60;;
78443;SDS011;67739;52.986;8.894;2023-02-28T16:58:42;3.20;;;0.60;;
78443;SDS011;67739;52.986;8.894;2023-02-28T17:01:07;4.38;;;0.65;;
78443;SDS011;67739;52.986;8.894;2023-02-28T17:03:32;3.90;;;1.05;;
78443;SDS011;67739;52.986;8.894;2023-02-28T17:05:58;4.20;;;0.85;;
78443;SDS011;67739;52.986;8.894;2023-02-28T17:08:23;5.63;;;0.90;;
78443;SDS011;67739;52.986;8.894;2023-02-28T17:10:49;3.25;;;0.93;;
78443;SDS011;67739;52.986;8.894;2023-02-28T17:13:14;3.03;;;0.95;;
78443;SDS011;67739;52.986;8.894;2023-02-28T17:15:40;3.97;;;1.25;;
78443;SDS011;67739;52.986;8.894;2023-02-28T17:18:06;5.28;;;1.73;;
78443;SDS011;67739;52.986;8.894;2023-02-28T17:20:34;7.25;;;2.88;;
78443;SDS011;67739;52.986;8.894;2023-02-28T17:22:59;7.03;;;3.10;;
78443;SDS011;67739;52.986;8.894;2023-02-28T17:25:25;11.38;;;2.17;;
78443;SDS011;67739;52.986;8.894;2023-02-28T17:27:51;6.85;;;2.30;;
78443;SDS011;67739;52.986;8.894;2023-02-28T17:30:23;5.75;;;1.23;;
78443;SDS011;67739;52.986;8.894;2023-02-28T17:32:52;5.93;;;1.70;;
78443;SDS011;67739;52.986;8.894;2023-02-28T17:35:21;4.75;;;1.70;;
78443;SDS011;67739;52.986;8.894;2023-02-28T17:37:47;5.95;;;1.95;;
78443;SDS011;67739;52.986;8.894;2023-02-28T17:40:16;4.60;;;1.58;;
78443;SDS011;67739;52.986;8.894;2023-02-28T17:42:44;6.03;;;1.95;;
78443;SDS011;67739;52.986;8.894;2023-02-28T17:45:11;5.13;;;1.70;;
78443;SDS011;67739;52.986;8.894;2023-02-28T17:47:37;5.35;;;1.58;;
78443;SDS011;67739;52.986;8.894;2023-02-28T17:50:02;4.35;;;1.60;;
78443;SDS011;67739;52.986;8.894;2023-02-28T17:52:28;5.13;;;1.30;;
78443;SDS011;67739;52.986;8.894;2023-02-28T17:54:54;4.75;;;1.90;;
78443;SDS011;67739;52.986;8.894;2023-02-28T17:57:19;8.65;;;2.25;;
78443;SDS011;67739;52.986;8.894;2023-02-28T17:59:45;9.32;;;3.67;;
78443;SDS011;67739;52.986;8.894;2023-02-28T18:02:11;8.15;;;3.53;;
78443;SDS011;67739;52.986;8.894;2023-02-28T18:04:37;6.50;;;2.58;;
78443;SDS011;67739;52.986;8.894;2023-02-28T18:07:03;11.52;;;3.53;;
78443;SDS011;67739;52.986;8.894;2023-02-28T18:09:28;5.28;;;2.03;;
78443;SDS011;67739;52.986;8.894;2023-02-28T18:14:20;4.60;;;0.80;;
78443;SDS011;67739;52.986;8.894;2023-02-28T18:16:49;5.30;;;1.05;;
78443;SDS011;67739;52.986;8.894;2023-02-28T18:19:15;15.02;;;2.03;;
78443;SDS011;67739;52.986;8.894;2023-02-28T18:21:42;7.05;;;1.67;;
78443;SDS011;67739;52.986;8.894;2023-02-28T18:24:12;5.60;;;1.95;;
78443;SDS011;67739;52.986;8.894;2023-02-28T18:26:38;5.32;;;1.10;;
78443;SDS011;67739;52.986;8.894;2023-02-28T18:31:29;8.23;;;1.58;;
78443;SDS011;67739;52.986;8.894;2023-02-28T18:33:56;5.15;;;1.77;;
78443;SDS011;67739;52.986;8.894;2023-02-28T18:38:48;4.75;;;0.90;;
78443;SDS011;67739;52.986;8.894;2023-02-28T18:41:14;4.30;;;1.38;;
78443;SDS011;67739;52.986;8.894;2023-02-28T18:43:41;4.50;;;1.42;;
78443;SDS011;67739;52.986;8.894;2023-02-28T18:48:33;7.68;;;1.33;;